createdAt,value
2022-08-08T00:00:53.666Z,91.20
2022-08-08T00:03:32.643Z,90.12
2022-08-08T00:06:14.399Z,90.52
2022-08-08T00:09:03.392Z,88.95
2022-08-08T00:12:07.266Z,88.79
2022-08-08T00:15:00.566Z,88.38
2022-08-08T00:18:01.687Z,87.90
2022-08-08T00:20:51.120Z,87.66
2022-08-08T00:23:43.000Z,86.93
2022-08-08T00:26:36.745Z,86.77
2022-08-08T00:29:45.282Z,86.92
2022-08-08T00:32:36.078Z,88.00
2022-08-08T00:35:18.448Z,87.97
2022-08-08T00:38:32.040Z,87.67
2022-08-08T00:41:54.533Z,87.38
2022-08-08T00:44:44.106Z,85.98
2022-08-08T00:48:05.261Z,87.21
2022-08-08T00:50:52.462Z,86.33
2022-08-08T00:53:56.817Z,86.34
2022-08-08T00:57:03.955Z,86.27
2022-08-08T01:00:11.076Z,85.23
2022-08-08T01:03:58.877Z,85.40
2022-08-08T01:06:16.266Z,85.10
2022-08-08T01:08:52.974Z,85.99
2022-08-08T01:11:51.997Z,85.92
2022-08-08T01:14:57.427Z,86.00
2022-08-08T01:17:55.584Z,85.39
2022-08-08T01:20:56.222Z,84.75
2022-08-08T01:24:05.581Z,83.88
2022-08-08T01:26:36.008Z,84.45
2022-08-08T01:29:35.501Z,85.01
2022-08-08T01:32:45.376Z,86.14
2022-08-08T01:35:30.219Z,86.58
2022-08-08T01:38:26.211Z,86.69
2022-08-08T01:41:22.910Z,87.45
2022-08-08T01:44:01.970Z,85.54
2022-08-08T01:46:56.203Z,85.83
2022-08-08T01:49:40.874Z,86.00
2022-08-08T01:54:05.838Z,86.32
2022-08-08T01:55:26.512Z,86.10
2022-08-08T01:58:16.858Z,85.48
2022-08-08T02:01:17.220Z,84.42
2022-08-08T02:04:23.962Z,85.16
2022-08-08T02:07:14.393Z,85.36
2022-08-08T02:10:01.498Z,86.51
2022-08-08T02:13:09.100Z,85.56
2022-08-08T02:16:08.066Z,84.07
2022-08-08T02:18:59.958Z,84.06
2022-08-08T02:22:00.292Z,84.26
2022-08-08T02:24:32.054Z,85.90
2022-08-08T02:27:06.161Z,85.28
2022-08-08T02:29:54.606Z,85.66
2022-08-08T02:32:57.982Z,85.76
2022-08-08T02:36:05.151Z,86.19
2022-08-08T02:38:49.212Z,87.29
2022-08-08T02:42:03.637Z,86.64
2022-08-08T02:44:57.996Z,88.15
2022-08-08T02:47:54.938Z,88.68
2022-08-08T02:50:39.915Z,87.87
2022-08-08T02:53:24.062Z,87.43
2022-08-08T02:56:10.603Z,86.41
2022-08-08T02:59:26.118Z,86.56
2022-08-08T03:02:32.207Z,86.37
2022-08-08T03:05:44.906Z,88.40
2022-08-08T03:08:44.093Z,87.93
2022-08-08T03:11:59.836Z,87.15
2022-08-08T03:15:59.454Z,87.32
2022-08-08T03:17:59.779Z,87.63
2022-08-08T03:20:46.734Z,86.88
2022-08-08T03:23:17.672Z,87.63
2022-08-08T03:25:46.696Z,87.45
2022-08-08T03:28:32.976Z,86.83
2022-08-08T03:31:22.652Z,86.83
2022-08-08T03:33:58.886Z,87.34
2022-08-08T03:36:33.730Z,87.95
2022-08-08T03:39:15.116Z,86.86
2022-08-08T03:42:27.262Z,87.83
2022-08-08T03:44:34.017Z,87.50
2022-08-08T03:47:17.614Z,88.62
2022-08-08T03:50:00.993Z,88.19
2022-08-08T03:52:36.190Z,88.39
2022-08-08T03:55:55.995Z,87.77
2022-08-08T03:58:35.586Z,86.95
2022-08-08T04:01:20.699Z,87.38
2022-08-08T04:03:59.568Z,87.17
2022-08-08T04:06:29.953Z,87.65
2022-08-08T04:09:10.206Z,87.20
2022-08-08T04:11:57.726Z,87.34
2022-08-08T04:14:35.768Z,87.27
2022-08-08T04:17:04.679Z,87.67
2022-08-08T04:19:43.562Z,87.47
2022-08-08T04:22:11.286Z,87.80
2022-08-08T04:24:41.476Z,88.23
2022-08-08T04:27:19.449Z,88.34
2022-08-08T04:30:01.094Z,88.23
2022-08-08T04:32:46.845Z,88.53
2022-08-08T04:35:18.188Z,88.39
2022-08-08T04:37:55.594Z,88.15
2022-08-08T04:40:25.198Z,88.58
2022-08-08T04:42:56.827Z,88.14
2022-08-08T04:45:28.471Z,88.01
2022-08-08T04:48:01.447Z,87.29
2022-08-08T04:50:37.539Z,86.50
2022-08-08T04:53:52.475Z,86.36
2022-08-08T04:55:55.970Z,87.09
2022-08-08T04:58:24.733Z,87.33
2022-08-08T05:00:54.660Z,89.30
2022-08-08T05:04:09.189Z,88.02
2022-08-08T05:06:25.887Z,88.27
2022-08-08T05:09:02.746Z,87.74
2022-08-08T05:11:38.790Z,88.63
2022-08-08T05:14:07.052Z,89.08
2022-08-08T05:16:51.870Z,89.25
2022-08-08T05:20:09.391Z,88.60
2022-08-08T05:22:11.143Z,89.62
2022-08-08T05:24:41.718Z,87.51
2022-08-08T05:27:16.834Z,88.71
2022-08-08T05:29:51.854Z,88.94
2022-08-08T05:32:24.718Z,88.15
2022-08-08T05:34:55.447Z,88.96
2022-08-08T05:37:39.221Z,89.08
2022-08-08T05:40:14.725Z,88.59
2022-08-08T05:42:45.986Z,88.19
2022-08-08T05:45:25.351Z,88.42
2022-08-08T05:48:08.220Z,88.38
2022-08-08T05:50:39.335Z,87.93
2022-08-08T05:53:53.794Z,86.53
2022-08-08T05:56:09.479Z,85.69
2022-08-08T05:58:57.542Z,83.89
2022-08-08T06:01:56.358Z,82.54
2022-08-08T06:04:29.291Z,81.26
2022-08-08T06:07:02.075Z,79.51
2022-08-08T06:09:59.209Z,80.64
2022-08-08T06:12:30.463Z,80.00
2022-08-08T06:15:06.290Z,78.51
2022-08-08T06:18:18.234Z,76.58
2022-08-08T06:20:26.608Z,75.30
2022-08-08T06:23:00.087Z,75.63
2022-08-08T06:25:33.155Z,75.16
2022-08-08T06:28:29.230Z,73.69
2022-08-08T06:30:58.832Z,71.63
2022-08-08T06:33:37.346Z,72.96
2022-08-08T06:36:53.937Z,71.49
2022-08-08T06:39:22.114Z,69.50
2022-08-08T06:41:57.256Z,70.12
2022-08-08T06:44:25.830Z,64.64
2022-08-08T06:47:05.368Z,67.24
2022-08-08T06:49:54.818Z,64.08
2022-08-08T06:52:27.640Z,66.15
2022-08-08T06:54:56.566Z,65.49
2022-08-08T06:57:44.089Z,65.95
2022-08-08T07:00:13.505Z,63.72
2022-08-08T07:02:45.968Z,64.31
2022-08-08T07:05:20.648Z,63.34
2022-08-08T07:08:01.706Z,63.02
2022-08-08T07:10:47.694Z,61.81
2022-08-08T07:13:18.800Z,61.12
2022-08-08T07:16:05.319Z,63.42
2022-08-08T07:18:59.349Z,63.61
2022-08-08T07:21:31.166Z,62.04
2022-08-08T07:24:03.991Z,63.54
2022-08-08T07:26:35.248Z,58.94
2022-08-08T07:29:05.433Z,59.71
2022-08-08T07:31:35.516Z,60.64
2022-08-08T07:34:09.115Z,60.74
2022-08-08T07:36:48.087Z,59.68
2022-08-08T07:39:29.606Z,59.30
2022-08-08T07:42:12.680Z,59.04
2022-08-08T07:44:43.727Z,59.47
2022-08-08T07:47:16.163Z,60.59
2022-08-08T07:49:50.648Z,58.79
2022-08-08T07:52:26.970Z,58.87
2022-08-08T07:55:00.108Z,57.96
2022-08-08T07:57:37.043Z,58.15
2022-08-08T08:00:23.515Z,58.78
2022-08-08T08:03:13.837Z,56.54
2022-08-08T08:05:53.209Z,57.65
2022-08-08T08:08:25.881Z,57.83
2022-08-08T08:10:57.448Z,57.55
2022-08-08T08:14:08.354Z,57.30
2022-08-08T08:16:38.114Z,56.54
2022-08-08T08:19:07.957Z,56.85
2022-08-08T08:21:58.254Z,55.67
2022-08-08T08:24:36.544Z,54.85
2022-08-08T08:27:08.424Z,55.07
2022-08-08T08:29:37.356Z,55.64
2022-08-08T08:32:11.491Z,55.00
2022-08-08T08:34:43.462Z,53.34
2022-08-08T08:37:20.718Z,54.81
2022-08-08T08:40:00.919Z,54.32
2022-08-08T08:42:41.106Z,55.52
2022-08-08T08:45:22.613Z,54.34
2022-08-08T08:47:58.158Z,53.71
2022-08-08T08:50:33.028Z,54.76
2022-08-08T08:53:54.890Z,53.65
2022-08-08T08:56:03.062Z,52.83
2022-08-08T08:58:49.861Z,51.69
2022-08-08T09:01:22.003Z,50.19
2022-08-08T09:03:56.607Z,51.43
2022-08-08T09:06:33.517Z,49.49
2022-08-08T09:09:26.309Z,50.08
2022-08-08T09:12:07.701Z,49.01
2022-08-08T09:14:42.725Z,49.28
2022-08-08T09:17:18.965Z,48.99
2022-08-08T09:22:02.958Z,50.15
2022-08-08T09:22:39.486Z,48.16
2022-08-08T09:25:12.241Z,48.54
2022-08-08T09:27:58.057Z,49.05
2022-08-08T09:30:27.219Z,47.79
2022-08-08T09:33:11.984Z,47.75
2022-08-08T09:35:50.174Z,47.44
2022-08-08T09:38:32.876Z,48.07
2022-08-08T09:41:09.007Z,46.51
2022-08-08T09:44:06.387Z,45.28
2022-08-08T09:46:38.719Z,45.18
2022-08-08T09:49:40.870Z,44.78
2022-08-08T09:52:07.053Z,45.91
2022-08-08T09:54:56.353Z,44.69
2022-08-08T09:57:45.713Z,45.81
2022-08-08T10:00:49.817Z,40.39
2022-08-08T10:03:13.249Z,40.70
2022-08-08T10:05:46.745Z,42.26
2022-08-08T10:08:16.973Z,43.82
2022-08-08T10:10:51.293Z,43.70
2022-08-08T10:13:32.265Z,42.98
2022-08-08T10:16:06.927Z,40.92
2022-08-08T10:18:42.023Z,40.03
2022-08-08T10:21:32.721Z,40.92
2022-08-08T10:24:12.234Z,39.41
2022-08-08T10:27:06.825Z,39.18
2022-08-08T10:29:58.701Z,38.71
2022-08-08T10:32:37.451Z,38.79
2022-08-08T10:36:08.313Z,39.51
2022-08-08T10:38:20.347Z,37.89
2022-08-08T10:40:51.923Z,37.68
2022-08-08T10:43:26.078Z,38.63
2022-08-08T10:46:03.653Z,38.79
2022-08-08T10:48:57.267Z,38.24
2022-08-08T10:51:51.287Z,38.92
2022-08-08T10:54:26.895Z,36.08
2022-08-08T10:57:03.943Z,37.85
2022-08-08T10:59:39.892Z,35.28
2022-08-08T11:02:11.775Z,36.87
2022-08-08T11:04:54.140Z,35.83
2022-08-08T11:08:30.258Z,35.95
2022-08-08T11:10:28.485Z,36.15
2022-08-08T11:16:00.490Z,36.94
2022-08-08T11:18:32.445Z,36.54
2022-08-08T11:21:09.867Z,36.80
2022-08-08T11:23:40.528Z,37.40
2022-08-08T11:26:28.005Z,36.74
2022-08-08T11:29:02.924Z,37.06
2022-08-08T11:31:48.447Z,36.91
2022-08-08T11:34:24.338Z,36.11
2022-08-08T11:37:15.099Z,36.95
2022-08-08T11:39:43.456Z,36.12
2022-08-08T11:42:27.112Z,35.02
2022-08-08T11:45:01.729Z,33.75
2022-08-08T11:47:39.771Z,34.14
2022-08-08T11:50:23.549Z,34.62
2022-08-08T11:53:05.734Z,33.71
2022-08-08T11:55:37.287Z,32.41
2022-08-08T11:58:15.550Z,34.95
2022-08-08T12:00:56.320Z,33.41
2022-08-08T12:03:30.657Z,33.78
2022-08-08T12:06:01.412Z,33.98
2022-08-08T12:08:38.067Z,33.71
2022-08-08T12:11:11.020Z,32.83
2022-08-08T12:14:03.531Z,32.40
2022-08-08T12:16:34.358Z,32.03
2022-08-08T12:19:15.485Z,33.07
2022-08-08T12:21:59.353Z,32.22
2022-08-08T12:24:32.120Z,34.11
2022-08-08T12:27:08.718Z,33.38
2022-08-08T12:29:42.157Z,33.21
2022-08-08T12:32:20.255Z,33.81
2022-08-08T12:35:04.209Z,32.76
2022-08-08T12:37:41.030Z,34.03
2022-08-08T12:40:22.357Z,33.72
2022-08-08T12:42:56.697Z,33.10
2022-08-08T12:45:58.351Z,33.69
2022-08-08T12:48:35.597Z,31.46
2022-08-08T12:51:07.825Z,33.06
2022-08-08T12:54:01.095Z,32.50
2022-08-08T12:56:40.038Z,32.85
2022-08-08T12:59:19.163Z,34.81
2022-08-08T13:02:01.678Z,31.72
2022-08-08T13:04:31.139Z,33.22
2022-08-08T13:07:16.749Z,32.69
2022-08-08T13:10:04.854Z,32.88
2022-08-08T13:12:45.970Z,32.12
2022-08-08T13:15:19.863Z,32.00
2022-08-08T13:18:07.960Z,33.33
2022-08-08T13:20:50.853Z,34.28
2022-08-08T13:23:41.806Z,34.11
2022-08-08T13:26:15.623Z,33.87
2022-08-08T13:28:45.815Z,33.00
2022-08-08T13:31:18.893Z,32.62
2022-08-08T13:33:54.465Z,32.66
2022-08-08T13:36:28.154Z,31.71
2022-08-08T13:39:00.207Z,32.79
2022-08-08T13:41:37.838Z,31.74
2022-08-08T13:44:19.420Z,31.59
2022-08-08T13:46:56.852Z,31.24
2022-08-08T13:50:35.442Z,30.45
2022-08-08T13:52:37.634Z,30.85
2022-08-08T13:55:13.935Z,30.53
2022-08-08T13:58:08.272Z,31.86
2022-08-08T14:00:45.501Z,31.19
2022-08-08T14:03:52.938Z,31.58
2022-08-08T14:06:32.866Z,31.66
2022-08-08T14:09:24.259Z,31.27
2022-08-08T14:11:58.381Z,32.32
2022-08-08T14:14:53.923Z,32.70
2022-08-08T14:17:57.877Z,32.33
2022-08-08T14:20:57.284Z,32.74
2022-08-08T14:23:21.393Z,34.40
2022-08-08T14:26:12.787Z,34.57
2022-08-08T14:28:47.807Z,34.22
2022-08-08T14:31:20.270Z,34.75
2022-08-08T14:33:56.553Z,34.30
2022-08-08T14:36:37.879Z,33.94
2022-08-08T14:39:11.773Z,35.61
2022-08-08T14:41:54.475Z,34.26
2022-08-08T14:44:35.248Z,35.92
2022-08-08T14:47:16.728Z,35.54
2022-08-08T14:50:10.224Z,35.52
2022-08-08T14:52:58.376Z,34.56
2022-08-08T14:55:41.065Z,36.13
2022-08-08T14:58:19.790Z,36.52
2022-08-08T15:00:54.860Z,36.59
2022-08-08T15:03:30.677Z,36.48
2022-08-08T15:06:16.581Z,36.45
2022-08-08T15:08:54.650Z,37.29
2022-08-08T15:11:28.556Z,36.33
2022-08-08T15:14:14.394Z,36.91
2022-08-08T15:16:44.249Z,36.87
2022-08-08T15:19:15.853Z,36.63
2022-08-08T15:21:45.842Z,36.34
2022-08-08T15:24:21.597Z,36.13
2022-08-08T15:26:54.780Z,35.84
2022-08-08T15:29:30.009Z,37.45
2022-08-08T15:32:19.818Z,36.18
2022-08-08T15:34:49.348Z,36.48
2022-08-08T15:37:19.154Z,36.22
2022-08-08T15:39:58.244Z,36.67
2022-08-08T15:42:33.212Z,36.26
2022-08-08T15:45:04.917Z,36.10
2022-08-08T15:47:35.900Z,37.16
2022-08-08T15:50:12.358Z,36.73
2022-08-08T15:52:52.888Z,36.79
2022-08-08T15:55:26.151Z,37.56
2022-08-08T15:57:57.028Z,37.08
2022-08-08T16:00:28.378Z,37.59
2022-08-08T16:02:59.746Z,37.32
2022-08-08T16:05:35.245Z,37.56
2022-08-08T16:08:20.178Z,37.32
2022-08-08T16:13:20.913Z,37.30
2022-08-08T16:13:45.799Z,38.11
2022-08-08T16:16:17.890Z,37.96
2022-08-08T16:18:57.337Z,38.16
2022-08-08T16:21:30.515Z,38.16
2022-08-08T16:24:03.299Z,38.54
2022-08-08T16:26:38.697Z,38.22
2022-08-08T16:29:18.943Z,38.30
2022-08-08T16:32:13.016Z,38.07
2022-08-08T16:34:56.796Z,38.16
2022-08-08T16:37:33.485Z,37.92
2022-08-08T16:40:19.901Z,38.89
2022-08-08T16:42:54.278Z,38.06
2022-08-08T16:46:37.474Z,38.43
2022-08-08T16:48:20.765Z,38.15
2022-08-08T16:50:57.050Z,37.63
2022-08-08T16:55:23.723Z,38.29
2022-08-08T16:56:15.654Z,39.08
2022-08-08T16:58:49.707Z,39.21
2022-08-08T17:01:21.738Z,39.25
2022-08-08T17:03:59.309Z,39.27
2022-08-08T17:06:43.477Z,39.68
2022-08-08T17:09:23.069Z,39.71
2022-08-08T17:11:59.509Z,39.86
2022-08-08T17:14:34.526Z,39.81
2022-08-08T17:17:41.525Z,39.39
2022-08-08T17:20:03.870Z,39.88
2022-08-08T17:22:39.048Z,40.58
2022-08-08T17:25:16.761Z,40.72
2022-08-08T17:27:50.961Z,40.53
2022-08-08T17:30:29.124Z,40.11
2022-08-08T17:34:52.707Z,40.50
2022-08-08T17:36:12.477Z,40.37
2022-08-08T17:38:49.033Z,39.88
2022-08-08T17:41:30.639Z,40.29
2022-08-08T17:44:12.107Z,39.99
2022-08-08T17:46:46.995Z,39.44
2022-08-08T17:49:23.932Z,39.82
2022-08-08T17:51:54.604Z,39.70
2022-08-08T17:54:29.132Z,39.97
2022-08-08T17:56:57.222Z,40.28
2022-08-08T17:59:36.345Z,40.70
2022-08-08T18:02:28.659Z,39.87
2022-08-08T18:05:08.847Z,40.53
2022-08-08T18:08:02.064Z,40.04
2022-08-08T18:10:36.314Z,41.37
2022-08-08T18:13:07.538Z,41.45
2022-08-08T18:15:45.947Z,41.52
2022-08-08T18:18:39.506Z,43.12
2022-08-08T18:21:25.177Z,41.23
2022-08-08T18:24:17.640Z,41.72
2022-08-08T18:26:54.561Z,41.77
2022-08-08T18:29:33.480Z,41.20
2022-08-08T18:32:06.708Z,41.81
2022-08-08T18:34:35.464Z,42.08
2022-08-08T18:37:09.649Z,42.26
2022-08-08T18:39:41.394Z,42.57
2022-08-08T18:42:16.939Z,42.70
2022-08-08T18:44:59.952Z,42.88
2022-08-08T18:47:42.260Z,43.94
2022-08-08T18:50:17.956Z,44.25
2022-08-08T18:52:55.280Z,44.67
2022-08-08T18:55:28.735Z,45.42
2022-08-08T18:58:03.110Z,45.35
2022-08-08T19:00:40.049Z,45.80
2022-08-08T19:03:22.221Z,46.30
2022-08-08T19:06:00.229Z,46.69
2022-08-08T19:08:30.620Z,49.05
2022-08-08T19:11:02.245Z,48.26
2022-08-08T19:13:53.223Z,47.27
2022-08-08T19:16:28.603Z,48.42
2022-08-08T19:19:12.356Z,48.50
2022-08-08T19:21:49.159Z,48.13
2022-08-08T19:24:42.277Z,47.75
2022-08-08T19:27:56.604Z,47.71
2022-08-08T19:30:24.589Z,50.57
2022-08-08T19:33:02.398Z,49.13
2022-08-08T19:35:45.197Z,48.93
2022-08-08T19:38:22.141Z,48.84
2022-08-08T19:40:54.424Z,49.51
2022-08-08T19:43:28.564Z,50.37
2022-08-08T19:46:01.056Z,51.14
2022-08-08T19:48:35.684Z,50.21
2022-08-08T19:51:06.765Z,49.82
2022-08-08T19:53:51.159Z,51.64
2022-08-08T19:56:39.983Z,54.41
2022-08-08T19:59:12.767Z,53.37
2022-08-08T20:02:00.991Z,53.96
2022-08-08T20:04:39.675Z,54.23
2022-08-08T20:08:30.022Z,51.71
2022-08-08T20:10:00.904Z,54.10
2022-08-08T20:12:31.622Z,54.75
2022-08-08T20:15:21.813Z,54.13
2022-08-08T20:17:55.710Z,55.04
2022-08-08T20:20:34.141Z,55.16
2022-08-08T20:23:05.508Z,56.94
2022-08-08T20:25:45.411Z,57.16
2022-08-08T20:28:18.950Z,55.35
2022-08-08T20:30:56.036Z,55.55
2022-08-08T20:34:27.343Z,55.56
2022-08-08T20:36:22.978Z,56.63
2022-08-08T20:38:58.300Z,56.93
2022-08-08T20:41:34.128Z,56.66
2022-08-08T20:44:07.943Z,57.34
2022-08-08T20:46:41.749Z,56.68
2022-08-08T20:49:17.093Z,58.02
2022-08-08T20:51:45.790Z,58.48
2022-08-08T20:54:27.462Z,59.23
2022-08-08T20:57:16.931Z,60.72
2022-08-08T20:59:47.030Z,60.05
2022-08-08T21:02:25.399Z,60.42
2022-08-08T21:04:54.768Z,59.96
2022-08-08T21:07:47.482Z,60.04
2022-08-08T21:10:17.470Z,60.24
2022-08-08T21:12:54.381Z,60.31
2022-08-08T21:16:05.265Z,60.85
2022-08-08T21:18:15.748Z,62.08
2022-08-08T21:20:52.749Z,61.90
2022-08-08T21:23:58.949Z,62.50
2022-08-08T21:26:27.204Z,63.06
2022-08-08T21:29:00.666Z,62.34
2022-08-08T21:31:53.435Z,62.67
2022-08-08T21:34:20.935Z,64.02
2022-08-08T21:36:52.733Z,65.54
2022-08-08T21:39:23.915Z,65.42
2022-08-08T21:42:10.881Z,64.97
2022-08-08T21:44:58.814Z,65.43
2022-08-08T21:48:04.261Z,66.16
2022-08-08T21:50:16.875Z,66.73
2022-08-08T21:54:33.710Z,66.34
2022-08-08T21:56:20.275Z,66.11
2022-08-08T21:58:37.440Z,66.90
2022-08-08T22:01:06.021Z,66.94
2022-08-08T22:03:53.428Z,66.48
2022-08-08T22:06:31.737Z,66.72
2022-08-08T22:09:00.018Z,67.64
2022-08-08T22:11:59.525Z,67.13
2022-08-08T22:14:23.885Z,68.37
2022-08-08T22:17:00.956Z,67.78
2022-08-08T22:20:12.127Z,68.17
2022-08-08T22:22:19.007Z,68.32
2022-08-08T22:24:49.878Z,68.90
2022-08-08T22:27:22.803Z,69.28
2022-08-08T22:30:13.438Z,68.55
2022-08-08T22:32:53.298Z,69.40
2022-08-08T22:35:23.758Z,69.41
2022-08-08T22:37:54.366Z,70.07
2022-08-08T22:40:31.955Z,70.65
2022-08-08T22:42:59.791Z,70.30
2022-08-08T22:45:27.967Z,70.59
2022-08-08T22:47:56.655Z,70.55
2022-08-08T22:50:28.623Z,70.79
2022-08-08T22:54:29.222Z,70.77
2022-08-08T22:55:57.645Z,72.06
2022-08-08T22:58:28.855Z,71.38
2022-08-08T23:01:01.662Z,71.27
2022-08-08T23:03:53.307Z,71.63
2022-08-08T23:06:28.175Z,71.81
2022-08-08T23:09:00.425Z,71.40
2022-08-08T23:12:18.432Z,70.77
2022-08-08T23:14:21.099Z,72.51
2022-08-08T23:16:59.203Z,72.08
2022-08-08T23:19:32.925Z,73.07
2022-08-08T23:22:05.152Z,72.48
2022-08-08T23:24:41.189Z,72.31
2022-08-08T23:27:17.342Z,71.34
2022-08-08T23:30:04.128Z,72.04
2022-08-08T23:32:32.448Z,71.43
2022-08-08T23:35:01.096Z,70.90
2022-08-08T23:38:01.431Z,69.73
2022-08-08T23:40:28.986Z,68.32
2022-08-08T23:42:58.038Z,67.77
2022-08-08T23:49:03.337Z,66.41
2022-08-08T23:49:08.765Z,67.71
2022-08-08T23:51:12.710Z,67.39
2022-08-08T23:54:06.136Z,66.85
2022-08-08T23:56:34.105Z,66.80
2022-08-08T23:59:16.834Z,67.19
